createdAt,value
2023-04-04T00:00:17.777Z,42.66
2023-04-04T00:03:06.700Z,42.34
2023-04-04T00:05:55.412Z,42.49
2023-04-04T00:08:45.406Z,42.78
2023-04-04T00:11:34.049Z,42.56
2023-04-04T00:14:22.725Z,42.56
2023-04-04T00:17:11.390Z,42.86
2023-04-04T00:19:59.991Z,42.86
2023-04-04T00:22:48.575Z,42.55
2023-04-04T00:25:38.847Z,43.09
2023-04-04T00:28:27.881Z,42.72
2023-04-04T00:31:16.959Z,43.23
2023-04-04T00:34:05.645Z,43.18
2023-04-04T00:36:54.393Z,42.93
2023-04-04T00:39:43.366Z,43.22
2023-04-04T00:42:35.091Z,42.94
2023-04-04T00:45:23.681Z,43.13
2023-04-04T00:48:12.339Z,43.16
2023-04-04T00:51:00.940Z,43.02
2023-04-04T00:53:50.701Z,43.12
2023-04-04T00:56:39.766Z,42.93
2023-04-04T00:59:30.137Z,43.13
2023-04-04T01:02:21.523Z,43.16
2023-04-04T01:05:11.095Z,42.92
2023-04-04T01:07:59.849Z,42.88
2023-04-04T01:10:48.380Z,42.97
2023-04-04T01:13:37.156Z,42.76
2023-04-04T01:16:27.249Z,42.64
2023-04-04T01:19:20.044Z,42.63
2023-04-04T01:22:10.387Z,43.04
2023-04-04T01:25:00.258Z,42.90
2023-04-04T01:27:50.360Z,42.96
2023-04-04T01:30:41.999Z,42.68
2023-04-04T01:33:33.380Z,42.80
2023-04-04T01:36:29.896Z,42.70
2023-04-04T01:39:24.951Z,42.99
2023-04-04T01:42:13.683Z,43.02
2023-04-04T01:45:05.673Z,42.99
2023-04-04T01:47:54.298Z,43.15
2023-04-04T01:50:42.968Z,43.22
2023-04-04T01:53:32.005Z,43.20
2023-04-04T01:56:20.626Z,43.12
2023-04-04T01:59:09.315Z,43.21
2023-04-04T02:01:59.267Z,42.76
2023-04-04T02:04:47.970Z,43.11
2023-04-04T02:07:36.538Z,43.24
2023-04-04T02:10:25.302Z,43.20
2023-04-04T02:13:13.884Z,43.17
2023-04-04T02:16:02.667Z,43.14
2023-04-04T02:18:52.980Z,43.09
2023-04-04T02:21:41.591Z,43.00
2023-04-04T02:24:30.219Z,43.01
2023-04-04T02:27:18.903Z,43.14
2023-04-04T02:30:08.820Z,43.50
2023-04-04T02:33:01.443Z,43.05
2023-04-04T02:35:51.425Z,43.17
2023-04-04T02:38:40.053Z,43.54
2023-04-04T02:41:29.027Z,43.13
2023-04-04T02:44:17.658Z,43.49
2023-04-04T02:47:07.864Z,43.80
2023-04-04T02:49:56.720Z,43.82
2023-04-04T02:52:46.714Z,43.80
2023-04-04T02:55:35.452Z,43.41
2023-04-04T02:58:24.096Z,43.66
2023-04-04T03:01:12.794Z,43.68
2023-04-04T03:04:03.159Z,43.35
2023-04-04T03:06:52.238Z,43.27
2023-04-04T03:09:45.125Z,43.40
2023-04-04T03:12:33.707Z,43.27
2023-04-04T03:15:22.520Z,43.41
2023-04-04T03:18:11.267Z,43.34
2023-04-04T03:20:59.960Z,43.19
2023-04-04T03:23:48.710Z,43.60
2023-04-04T03:26:38.711Z,43.75
2023-04-04T03:29:27.396Z,43.49
2023-04-04T03:32:16.004Z,43.85
2023-04-04T03:35:04.785Z,43.45
2023-04-04T03:37:54.689Z,43.81
2023-04-04T03:40:44.050Z,43.36
2023-04-04T03:43:34.523Z,43.39
2023-04-04T03:46:23.142Z,43.44
2023-04-04T03:49:11.791Z,43.59
2023-04-04T03:52:02.235Z,43.35
2023-04-04T03:54:50.850Z,43.59
2023-04-04T03:57:39.439Z,43.36
2023-04-04T04:00:29.426Z,43.53
2023-04-04T04:03:18.080Z,43.28
2023-04-04T04:06:06.892Z,43.68
2023-04-04T04:08:56.351Z,43.35
2023-04-04T04:11:44.957Z,43.64
2023-04-04T04:14:33.660Z,43.27
2023-04-04T04:17:23.817Z,43.53
2023-04-04T04:20:13.415Z,43.57
2023-04-04T04:23:02.002Z,43.34
2023-04-04T04:25:50.689Z,43.21
2023-04-04T04:28:39.397Z,43.49
2023-04-04T04:31:28.056Z,43.14
2023-04-04T04:34:18.116Z,43.46
2023-04-04T04:37:06.693Z,43.50
2023-04-04T04:39:55.432Z,43.73
2023-04-04T04:42:47.047Z,43.64
2023-04-04T04:45:35.648Z,43.62
2023-04-04T04:48:24.302Z,44.01
2023-04-04T04:51:15.093Z,43.96
2023-04-04T04:54:03.647Z,43.46
2023-04-04T04:56:52.224Z,43.96
2023-04-04T04:59:41.327Z,43.89
2023-04-04T05:02:30.056Z,43.68
2023-04-04T05:05:18.688Z,44.34
2023-04-04T05:08:08.742Z,43.93
2023-04-04T05:10:57.306Z,43.82
2023-04-04T05:13:46.331Z,43.90
2023-04-04T05:16:35.564Z,43.44
2023-04-04T05:19:24.380Z,43.43
2023-04-04T05:22:12.945Z,43.58
2023-04-04T05:25:03.257Z,43.24
2023-04-04T05:27:52.213Z,43.61
2023-04-04T05:30:41.894Z,43.58
2023-04-04T05:33:31.133Z,43.96
2023-04-04T05:36:19.813Z,43.56
2023-04-04T05:39:08.365Z,43.93
2023-04-04T05:41:58.326Z,43.55
2023-04-04T05:44:46.910Z,43.88
2023-04-04T05:47:35.683Z,43.71
2023-04-04T05:50:24.451Z,43.67
2023-04-04T05:53:12.987Z,43.58
2023-04-04T05:56:02.333Z,44.00
2023-04-04T05:58:52.383Z,43.99
2023-04-04T06:01:41.232Z,43.93
2023-04-04T06:04:29.876Z,43.59
2023-04-04T06:07:18.659Z,44.02
2023-04-04T06:10:08.733Z,43.81
2023-04-04T06:12:57.348Z,43.86
2023-04-04T06:15:47.353Z,43.96
2023-04-04T06:18:36.184Z,43.74
2023-04-04T06:21:24.925Z,43.73
2023-04-04T06:24:13.448Z,43.60
2023-04-04T06:27:01.989Z,43.65
2023-04-04T06:29:50.558Z,43.54
2023-04-04T06:32:40.522Z,43.56
2023-04-04T06:35:29.095Z,43.46
2023-04-04T06:38:17.702Z,43.18
2023-04-04T06:41:06.700Z,43.43
2023-04-04T06:43:55.440Z,43.21
2023-04-04T06:46:44.702Z,42.92
2023-04-04T06:49:35.058Z,43.60
2023-04-04T06:52:23.703Z,43.94
2023-04-04T06:55:13.195Z,43.54
2023-04-04T06:58:02.017Z,43.57
2023-04-04T07:00:50.621Z,43.66
2023-04-04T07:03:39.181Z,43.76
2023-04-04T07:06:30.005Z,43.84
2023-04-04T07:09:29.596Z,43.50
2023-04-04T07:12:18.735Z,43.37
2023-04-04T07:15:08.341Z,43.43
2023-04-04T07:17:57.230Z,43.29
2023-04-04T07:20:48.438Z,43.00
2023-04-04T07:23:38.430Z,43.39
2023-04-04T07:26:27.887Z,43.29
2023-04-04T07:29:16.500Z,43.00
2023-04-04T07:32:05.078Z,43.11
2023-04-04T07:34:53.724Z,43.04
2023-04-04T07:37:42.279Z,43.06
2023-04-04T07:40:32.397Z,42.91
2023-04-04T07:43:21.406Z,43.16
2023-04-04T07:46:10.084Z,42.81
2023-04-04T07:48:59.532Z,42.35
2023-04-04T07:51:48.989Z,42.22
2023-04-04T07:54:37.646Z,42.29
2023-04-04T07:57:27.665Z,42.13
2023-04-04T08:00:17.696Z,41.94
2023-04-04T08:03:06.510Z,42.17
2023-04-04T08:05:55.509Z,42.27
2023-04-04T08:08:48.158Z,41.78
2023-04-04T08:11:36.729Z,41.91
2023-04-04T08:14:27.010Z,41.53
2023-04-04T08:17:18.940Z,41.76
2023-04-04T08:20:08.568Z,41.58
2023-04-04T08:22:57.451Z,41.71
2023-04-04T08:25:46.273Z,42.07
2023-04-04T08:28:34.895Z,42.08
2023-04-04T08:31:25.025Z,41.90
2023-04-04T08:34:13.733Z,41.94
2023-04-04T08:37:02.372Z,41.65
2023-04-04T08:39:51.210Z,41.54
2023-04-04T08:42:43.263Z,41.75
2023-04-04T08:45:33.333Z,42.37
2023-04-04T08:48:29.734Z,42.19
2023-04-04T08:51:19.396Z,42.32
2023-04-04T08:54:08.244Z,42.47
2023-04-04T08:56:57.068Z,42.42
2023-04-04T08:59:45.973Z,42.65
2023-04-04T09:02:36.605Z,42.48
2023-04-04T09:05:27.346Z,42.48
2023-04-04T09:08:16.611Z,42.24
2023-04-04T09:11:05.977Z,42.08
2023-04-04T09:13:56.860Z,42.15
2023-04-04T09:16:45.515Z,42.41
2023-04-04T09:19:34.356Z,41.95
2023-04-04T09:22:24.697Z,42.05
2023-04-04T09:25:13.376Z,41.84
2023-04-04T09:28:03.056Z,42.11
2023-04-04T09:30:52.139Z,42.35
2023-04-04T09:33:40.744Z,41.87
2023-04-04T09:36:30.180Z,41.82
2023-04-04T09:39:23.159Z,41.98
2023-04-04T09:42:12.411Z,41.95
2023-04-04T09:45:01.114Z,41.75
2023-04-04T09:47:49.830Z,41.85
2023-04-04T09:50:39.853Z,42.15
2023-04-04T09:53:28.721Z,42.21
2023-04-04T09:56:18.824Z,42.14
2023-04-04T09:59:08.679Z,41.98
2023-04-04T10:01:57.438Z,42.09
2023-04-04T10:04:48.889Z,42.34
2023-04-04T10:07:42.306Z,42.44
2023-04-04T10:10:32.924Z,42.55
2023-04-04T10:13:28.202Z,42.16
2023-04-04T10:16:17.683Z,42.09
2023-04-04T10:19:08.723Z,41.87
2023-04-04T10:21:57.485Z,41.60
2023-04-04T10:24:46.166Z,41.89
2023-04-04T10:27:35.380Z,41.65
2023-04-04T10:30:25.622Z,41.37
2023-04-04T10:33:22.854Z,41.62
2023-04-04T10:36:13.970Z,41.57
2023-04-04T10:39:20.751Z,41.78
2023-04-04T10:42:09.584Z,41.59
2023-04-04T10:45:09.142Z,41.86
2023-04-04T10:48:10.224Z,41.81
2023-04-04T10:51:01.060Z,41.25
2023-04-04T10:53:50.020Z,41.40
2023-04-04T10:56:39.100Z,41.30
2023-04-04T10:59:28.185Z,41.22
2023-04-04T11:02:18.201Z,41.59
2023-04-04T11:05:13.682Z,41.29
2023-04-04T11:08:08.587Z,41.40
2023-04-04T11:11:00.386Z,41.38
2023-04-04T11:14:01.816Z,41.50
2023-04-04T11:16:57.785Z,41.80
2023-04-04T11:20:00.423Z,41.42
2023-04-04T11:22:52.642Z,41.96
2023-04-04T11:25:42.759Z,41.61
2023-04-04T11:28:46.295Z,41.47
2023-04-04T11:31:35.663Z,41.48
2023-04-04T11:34:32.818Z,41.45
2023-04-04T11:37:22.000Z,41.53
2023-04-04T11:40:13.962Z,41.52
2023-04-04T11:43:04.409Z,41.49
2023-04-04T11:45:53.103Z,41.47
2023-04-04T11:48:41.910Z,41.31
2023-04-04T11:51:30.416Z,41.25
2023-04-04T11:54:19.817Z,41.53
2023-04-04T11:57:10.196Z,41.53
2023-04-04T11:59:59.114Z,41.94
2023-04-04T12:02:47.889Z,41.95
2023-04-04T12:05:36.777Z,41.80
2023-04-04T12:08:25.434Z,41.74
2023-04-04T12:11:18.666Z,42.15
2023-04-04T12:14:17.432Z,42.14
2023-04-04T12:17:06.138Z,41.89
2023-04-04T12:19:54.765Z,42.02
2023-04-04T12:22:44.071Z,42.12
2023-04-04T12:25:34.067Z,42.08
2023-04-04T12:28:23.182Z,42.27
2023-04-04T12:31:14.316Z,42.07
2023-04-04T12:34:03.077Z,42.31
2023-04-04T12:36:54.065Z,42.38
2023-04-04T12:39:49.326Z,42.05
2023-04-04T12:42:37.995Z,42.32
2023-04-04T12:45:28.408Z,42.49
2023-04-04T12:48:19.069Z,42.59
2023-04-04T12:51:08.854Z,42.70
2023-04-04T12:53:58.350Z,42.36
2023-04-04T12:56:47.051Z,42.40
2023-04-04T12:59:37.569Z,42.58
2023-04-04T13:02:29.537Z,42.65
2023-04-04T13:05:22.029Z,42.77
2023-04-04T13:08:11.428Z,42.60
2023-04-04T13:11:04.394Z,42.68
2023-04-04T13:14:02.527Z,34.60
2023-04-04T13:17:04.455Z,30.66
2023-04-04T13:19:53.348Z,30.43
2023-04-04T13:22:43.576Z,28.36
2023-04-04T13:25:32.139Z,27.84
2023-04-04T13:28:21.369Z,26.71
2023-04-04T13:31:11.867Z,25.56
2023-04-04T13:34:00.584Z,25.08
2023-04-04T13:36:49.125Z,27.67
2023-04-04T13:39:39.362Z,29.70
2023-04-04T13:42:31.670Z,30.75
2023-04-04T13:45:21.205Z,30.96
2023-04-04T13:48:10.191Z,30.81
2023-04-04T13:50:58.934Z,31.16
2023-04-04T13:53:48.948Z,32.37
2023-04-04T13:56:38.918Z,31.48
2023-04-04T13:59:27.725Z,31.33
2023-04-04T14:02:16.453Z,31.45
2023-04-04T14:05:05.102Z,31.58
2023-04-04T14:07:53.748Z,31.66
2023-04-04T14:10:42.335Z,32.89
2023-04-04T14:13:32.869Z,33.63
2023-04-04T14:16:22.953Z,33.87
2023-04-04T14:19:11.708Z,32.75
2023-04-04T14:22:00.393Z,32.63
2023-04-04T14:24:48.941Z,32.33
2023-04-04T14:27:37.577Z,31.85
2023-04-04T14:30:27.665Z,32.10
2023-04-04T14:33:16.394Z,31.35
2023-04-04T14:36:07.849Z,31.13
2023-04-04T14:38:59.475Z,31.12
2023-04-04T14:41:48.049Z,28.35
2023-04-04T14:44:36.656Z,26.35
2023-04-04T14:47:26.979Z,28.01
2023-04-04T14:50:15.656Z,28.52
2023-04-04T14:53:04.566Z,28.69
2023-04-04T14:55:53.453Z,26.71
2023-04-04T14:58:44.550Z,25.45
2023-04-04T15:01:33.347Z,27.16
2023-04-04T15:04:23.385Z,28.08
2023-04-04T15:07:12.036Z,28.37
2023-04-04T15:10:00.722Z,28.76
2023-04-04T15:12:49.306Z,28.82
2023-04-04T15:15:37.942Z,28.85
2023-04-04T15:18:26.642Z,29.28
2023-04-04T15:21:16.755Z,29.36
2023-04-04T15:24:05.817Z,29.22
2023-04-04T15:26:56.475Z,28.92
2023-04-04T15:29:46.062Z,29.20
2023-04-04T15:32:34.736Z,28.89
2023-04-04T15:35:23.850Z,29.34
2023-04-04T15:38:13.883Z,29.41
2023-04-04T15:41:02.542Z,29.37
2023-04-04T15:43:51.419Z,29.21
2023-04-04T15:46:39.978Z,28.92
2023-04-04T15:49:29.077Z,29.06
2023-04-04T15:52:17.818Z,29.23
2023-04-04T15:55:12.880Z,29.45
2023-04-04T15:58:01.601Z,29.37
2023-04-04T16:00:50.297Z,29.91
2023-04-04T16:03:39.155Z,30.28
2023-04-04T16:06:30.026Z,30.39
2023-04-04T16:09:18.856Z,31.72
2023-04-04T16:12:09.192Z,32.37
2023-04-04T16:14:57.837Z,32.66
2023-04-04T16:17:47.107Z,33.30
2023-04-04T16:20:36.146Z,33.40
2023-04-04T16:23:24.751Z,33.23
2023-04-04T16:26:13.369Z,33.21
2023-04-04T16:29:04.165Z,33.37
2023-04-04T16:31:52.852Z,33.22
2023-04-04T16:34:41.575Z,33.15
2023-04-04T16:37:30.426Z,33.27
2023-04-04T16:40:19.297Z,33.54
2023-04-04T16:43:07.884Z,33.36
2023-04-04T16:45:57.816Z,33.40
2023-04-04T16:48:46.547Z,33.66
2023-04-04T16:51:35.212Z,33.92
2023-04-04T16:54:24.138Z,33.99
2023-04-04T16:57:13.351Z,34.11
2023-04-04T17:00:01.921Z,33.57
2023-04-04T17:02:52.022Z,32.80
2023-04-04T17:05:41.531Z,32.87
2023-04-04T17:08:30.259Z,32.85
2023-04-04T17:11:19.089Z,32.20
2023-04-04T17:14:08.309Z,31.75
2023-04-04T17:17:00.570Z,31.69
2023-04-04T17:19:51.109Z,31.17
2023-04-04T17:22:39.713Z,30.93
2023-04-04T17:25:29.313Z,30.59
2023-04-04T17:28:19.742Z,30.67
2023-04-04T17:31:08.374Z,30.45
2023-04-04T17:33:56.947Z,30.66
2023-04-04T17:36:47.134Z,30.49
2023-04-04T17:39:35.750Z,30.35
2023-04-04T17:42:24.564Z,30.24
2023-04-04T17:45:13.376Z,30.28
2023-04-04T17:48:02.274Z,30.26
2023-04-04T17:50:51.927Z,30.26
2023-04-04T17:53:42.329Z,30.57
2023-04-04T17:56:31.665Z,31.78
2023-04-04T17:59:21.016Z,32.54
2023-04-04T18:02:10.087Z,32.57
2023-04-04T18:04:58.677Z,32.70
2023-04-04T18:07:47.324Z,32.84
2023-04-04T18:10:37.369Z,33.36
2023-04-04T18:13:26.166Z,33.29
2023-04-04T18:16:14.825Z,33.79
2023-04-04T18:19:03.495Z,33.68
2023-04-04T18:21:53.021Z,34.22
2023-04-04T18:24:42.091Z,34.07
2023-04-04T18:27:32.444Z,34.26
2023-04-04T18:30:21.201Z,34.25
2023-04-04T18:33:09.931Z,34.14
2023-04-04T18:36:00.042Z,34.29
2023-04-04T18:38:48.818Z,34.69
2023-04-04T18:41:37.561Z,34.56
2023-04-04T18:44:27.568Z,34.79
2023-04-04T18:47:16.169Z,34.67
2023-04-04T18:50:05.203Z,34.89
2023-04-04T18:52:55.392Z,34.92
2023-04-04T18:55:44.128Z,35.09
2023-04-04T18:58:34.217Z,34.93
2023-04-04T19:01:24.539Z,35.25
2023-04-04T19:04:13.264Z,35.54
2023-04-04T19:07:06.441Z,35.47
2023-04-04T19:09:55.489Z,35.50
2023-04-04T19:12:44.164Z,35.57
2023-04-04T19:15:33.024Z,35.65
2023-04-04T19:18:23.617Z,35.61
2023-04-04T19:21:12.282Z,35.91
2023-04-04T19:24:04.262Z,36.41
2023-04-04T19:26:53.205Z,36.12
2023-04-04T19:29:41.843Z,36.21
2023-04-04T19:32:33.886Z,35.96
2023-04-04T19:35:54.770Z,36.08
2023-04-04T19:38:44.302Z,36.21
2023-04-04T19:41:36.140Z,36.17
2023-04-04T19:44:25.756Z,36.34
2023-04-04T19:47:20.775Z,36.30
2023-04-04T19:50:16.247Z,36.31
2023-04-04T19:53:07.287Z,36.54
2023-04-04T19:55:56.341Z,36.57
2023-04-04T19:58:45.593Z,36.24
2023-04-04T20:01:35.412Z,36.82
2023-04-04T20:04:24.276Z,36.75
2023-04-04T20:07:13.066Z,36.88
2023-04-04T20:10:03.073Z,36.68
2023-04-04T20:12:52.133Z,37.24
2023-04-04T20:15:59.840Z,36.67
2023-04-04T20:18:49.887Z,36.62
2023-04-04T20:21:38.735Z,36.53
2023-04-04T20:24:28.466Z,36.50
2023-04-04T20:27:26.732Z,36.69
2023-04-04T20:30:16.661Z,36.51
2023-04-04T20:33:09.846Z,36.68
2023-04-04T20:35:59.583Z,36.63
2023-04-04T20:38:49.443Z,36.62
2023-04-04T20:41:38.053Z,37.12
2023-04-04T20:44:28.786Z,36.78
2023-04-04T20:47:45.215Z,36.68
2023-04-04T20:50:47.424Z,36.88
2023-04-04T20:53:36.754Z,36.53
2023-04-04T20:56:57.188Z,36.74
2023-04-04T20:59:50.065Z,37.34
2023-04-04T21:02:39.864Z,37.49
2023-04-04T21:05:29.325Z,37.95
2023-04-04T21:08:38.441Z,37.78
2023-04-04T21:11:30.066Z,37.85
2023-04-04T21:14:23.602Z,37.60
2023-04-04T21:17:13.657Z,38.29
2023-04-04T21:20:02.586Z,38.48
2023-04-04T21:22:51.898Z,39.32
2023-04-04T21:25:44.819Z,39.62
2023-04-04T21:28:41.354Z,39.19
2023-04-04T21:31:39.997Z,39.47
2023-04-04T21:34:30.349Z,39.49
2023-04-04T21:37:21.407Z,39.35
2023-04-04T21:40:11.858Z,39.57
2023-04-04T21:43:00.696Z,39.34
2023-04-04T21:45:49.270Z,39.37
2023-04-04T21:48:38.190Z,39.50
2023-04-04T21:51:28.312Z,39.76
2023-04-04T21:54:17.046Z,39.51
2023-04-04T21:57:05.887Z,40.02
2023-04-04T21:59:54.585Z,40.09
2023-04-04T22:02:43.609Z,39.94
2023-04-04T22:05:39.115Z,40.26
2023-04-04T22:08:29.899Z,40.17
2023-04-04T22:11:19.471Z,39.77
2023-04-04T22:14:08.266Z,40.14
2023-04-04T22:16:58.990Z,40.12
2023-04-04T22:19:58.852Z,40.32
2023-04-04T22:22:47.786Z,40.25
2023-04-04T22:25:38.230Z,40.45
2023-04-04T22:28:28.800Z,40.17
2023-04-04T22:31:17.490Z,39.86
2023-04-04T22:34:06.488Z,40.06
2023-04-04T22:36:55.510Z,39.72
2023-04-04T22:39:44.068Z,39.74
2023-04-04T22:42:35.792Z,39.97
2023-04-04T22:45:25.628Z,39.84
2023-04-04T22:48:15.243Z,40.05
2023-04-04T22:51:03.886Z,40.10
2023-04-04T22:53:57.719Z,39.68
2023-04-04T22:56:47.147Z,39.97
2023-04-04T22:59:37.712Z,39.72
2023-04-04T23:02:27.809Z,40.01
2023-04-04T23:05:18.831Z,40.13
2023-04-04T23:08:08.814Z,40.43
2023-04-04T23:10:58.074Z,40.23
2023-04-04T23:13:47.700Z,40.16
2023-04-04T23:16:38.826Z,39.98
2023-04-04T23:19:27.767Z,39.99
2023-04-04T23:22:25.475Z,40.22
2023-04-04T23:25:14.922Z,40.47
2023-04-04T23:28:04.045Z,40.76
2023-04-04T23:30:54.940Z,40.51
2023-04-04T23:33:45.603Z,40.09
2023-04-04T23:36:36.295Z,40.26
2023-04-04T23:39:27.062Z,40.37
2023-04-04T23:42:16.334Z,40.45
2023-04-04T23:45:06.548Z,40.23
2023-04-04T23:47:55.781Z,40.46
2023-04-04T23:50:46.545Z,40.27
2023-04-04T23:53:35.786Z,39.98
2023-04-04T23:56:25.223Z,40.08
2023-04-04T23:59:14.676Z,40.45
